Terminal Aerodrome Forecast
Issued by NWS Kansas City/Pleasant Hill, MO

Home | Current Version | Previous Version | Text Only | Print | Product List | Glossary On
Versions: 1 2 3 4 5 6 7 8 9 10 11 12 13 14
507
FTUS43 KEAX 021625 AAE
TAFMCI
TAF AMD
KMCI 021625Z 0216/0312 34005KT P6SM BKN019 BKN026 OVC035
     FM030000 35005KT P6SM SCT100=

USA.gov is the U.S. government's official web portal to all federal, state and local government web resources and services.